createdAt,value
2019-05-02T00:00:15.339Z,26.37
2019-05-02T00:02:44.724Z,31.10
2019-05-02T00:05:16.238Z,30.40
2019-05-02T00:07:45.696Z,30.48
2019-05-02T00:10:19.902Z,29.80
2019-05-02T00:12:50.641Z,29.80
2019-05-02T00:15:20.654Z,32.53
2019-05-02T00:17:49.955Z,29.25
2019-05-02T00:20:21.133Z,29.75
2019-05-02T00:22:52.197Z,27.30
2019-05-02T00:25:21.818Z,30.57
2019-05-02T00:27:51.108Z,29.18
2019-05-02T00:30:20.848Z,27.75
2019-05-02T00:32:53.107Z,27.85
2019-05-02T00:35:21.180Z,28.45
2019-05-02T00:37:50.490Z,30.72
2019-05-02T00:40:20.130Z,30.92
2019-05-02T00:42:53.242Z,32.35
2019-05-02T00:45:24.078Z,31.12
2019-05-02T00:48:13.023Z,30.45
2019-05-02T00:50:45.446Z,32.15
2019-05-02T00:53:13.580Z,31.33
2019-05-02T00:55:43.155Z,31.15
2019-05-02T00:58:12.454Z,31.42
2019-05-02T01:00:48.674Z,31.85
2019-05-02T01:03:22.095Z,31.55
2019-05-02T01:05:51.413Z,33.63
2019-05-02T01:08:20.703Z,33.75
2019-05-02T01:10:52.067Z,33.58
2019-05-02T01:13:20.992Z,33.45
2019-05-02T01:15:50.519Z,30.27
2019-05-02T01:18:21.626Z,36.28
2019-05-02T01:20:50.995Z,36.93
2019-05-02T01:23:23.052Z,40.48
2019-05-02T01:25:52.921Z,32.50
2019-05-02T01:28:23.931Z,34.75
2019-05-02T01:31:07.363Z,33.67
2019-05-02T01:33:41.762Z,32.70
2019-05-02T01:36:14.464Z,32.10
2019-05-02T01:38:45.660Z,33.20
2019-05-02T01:41:14.963Z,35.63
2019-05-02T01:43:44.282Z,43.95
2019-05-02T01:46:16.946Z,36.08
2019-05-02T01:48:45.607Z,38.92
2019-05-02T01:51:15.331Z,39.53
2019-05-02T01:53:44.864Z,39.25
2019-05-02T01:56:14.404Z,46.75
2019-05-02T01:58:43.715Z,47.45
2019-05-02T02:01:16.277Z,39.75
2019-05-02T02:03:45.761Z,45.48
2019-05-02T02:06:15.259Z,43.98
2019-05-02T02:08:44.792Z,49.03
2019-05-02T02:11:14.109Z,48.35
2019-05-02T02:13:43.404Z,47.45
2019-05-02T02:16:12.712Z,47.08
2019-05-02T02:18:52.743Z,46.18
2019-05-02T02:21:25.861Z,46.68
2019-05-02T02:24:05.351Z,41.35
2019-05-02T02:26:34.891Z,47.83
2019-05-02T02:29:07.977Z,49.38
2019-05-02T02:31:39.654Z,45.90
2019-05-02T02:34:06.428Z,45.92
2019-05-02T02:36:35.716Z,43.08
2019-05-02T02:39:13.325Z,47.30
2019-05-02T02:41:37.741Z,46.55
2019-05-02T02:44:20.711Z,43.55
2019-05-02T02:46:51.656Z,50.95
2019-05-02T02:49:24.036Z,45.23
2019-05-02T02:51:58.021Z,49.48
2019-05-02T02:54:23.261Z,48.10
2019-05-02T02:56:52.812Z,47.60
2019-05-02T02:59:26.415Z,45.45
2019-05-02T03:01:53.109Z,44.10
2019-05-02T03:04:22.416Z,44.67
2019-05-02T03:06:51.709Z,45.88
2019-05-02T03:09:26.785Z,46.10
2019-05-02T03:12:08.997Z,42.13
2019-05-02T03:14:40.922Z,42.53
2019-05-02T03:17:11.093Z,45.12
2019-05-02T03:19:40.689Z,42.45
2019-05-02T03:22:10.391Z,49.20
2019-05-02T03:24:44.042Z,49.20
2019-05-02T03:27:11.149Z,51.60
2019-05-02T03:29:44.347Z,45.08
2019-05-02T03:32:16.137Z,49.38
2019-05-02T03:34:51.687Z,53.65
2019-05-02T03:37:14.194Z,52.55
2019-05-02T03:39:49.575Z,53.10
2019-05-02T03:42:14.993Z,56.30
2019-05-02T03:44:55.198Z,52.48
2019-05-02T03:47:15.691Z,59.25
2019-05-02T03:49:48.568Z,54.80
2019-05-02T03:52:15.988Z,55.20
2019-05-02T03:54:50.294Z,53.17
2019-05-02T03:57:16.585Z,54.90
2019-05-02T03:59:45.896Z,57.45
2019-05-02T04:02:20.271Z,52.30
2019-05-02T04:04:54.064Z,56.33
2019-05-02T04:07:19.660Z,56.15
2019-05-02T04:09:48.964Z,55.12
2019-05-02T04:12:21.236Z,52.03
2019-05-02T04:14:55.601Z,53.90
2019-05-02T04:17:20.599Z,56.68
2019-05-02T04:19:50.271Z,55.15
2019-05-02T04:22:20.742Z,55.05
2019-05-02T04:24:54.425Z,57.73
2019-05-02T04:27:21.296Z,57.95
2019-05-02T04:29:50.618Z,56.37
2019-05-02T04:32:20.140Z,55.78
2019-05-02T04:34:55.338Z,56.35
2019-05-02T04:37:20.752Z,56.20
2019-05-02T04:39:53.840Z,55.63
2019-05-02T04:42:40.664Z,52.20
2019-05-02T04:45:24.103Z,52.10
2019-05-02T04:47:42.485Z,51.80
2019-05-02T04:50:17.852Z,53.55
2019-05-02T04:52:48.272Z,51.02
2019-05-02T04:55:22.946Z,51.60
2019-05-02T04:57:48.041Z,48.15
2019-05-02T05:00:19.992Z,50.98
2019-05-02T05:02:52.970Z,50.05
2019-05-02T05:05:25.502Z,52.78
2019-05-02T05:07:51.579Z,52.58
2019-05-02T05:10:21.188Z,49.98
2019-05-02T05:12:50.795Z,48.25
2019-05-02T05:15:35.908Z,47.62
2019-05-02T05:17:51.104Z,53.50
2019-05-02T05:20:20.417Z,49.73
2019-05-02T05:22:49.944Z,48.13
2019-05-02T05:25:21.411Z,55.83
2019-05-02T05:27:52.559Z,52.30
2019-05-02T05:30:21.778Z,52.48
2019-05-02T05:32:51.076Z,52.55
2019-05-02T05:35:20.377Z,55.55
2019-05-02T05:37:53.096Z,53.42
2019-05-02T05:40:22.613Z,52.50
2019-05-02T05:42:51.659Z,51.85
2019-05-02T05:45:21.235Z,55.28
2019-05-02T05:47:52.319Z,55.75
2019-05-02T05:50:21.528Z,53.70
2019-05-02T05:52:51.934Z,62.62
2019-05-02T05:55:24.405Z,56.23
2019-05-02T05:57:59.928Z,60.95
2019-05-02T06:00:23.735Z,51.70
2019-05-02T06:02:56.542Z,58.17
2019-05-02T06:05:24.035Z,58.35
2019-05-02T06:07:53.335Z,58.35
2019-05-02T06:10:22.939Z,64.70
2019-05-02T06:12:52.239Z,58.52
2019-05-02T06:15:21.540Z,66.53
2019-05-02T06:17:51.147Z,65.55
2019-05-02T06:20:20.607Z,63.45
2019-05-02T06:22:49.915Z,58.70
2019-05-02T06:25:32.857Z,66.82
2019-05-02T06:27:50.608Z,65.65
2019-05-02T06:30:20.259Z,59.35
2019-05-02T06:32:54.387Z,61.33
2019-05-02T06:35:21.372Z,61.02
2019-05-02T06:37:52.010Z,58.83
2019-05-02T06:40:21.494Z,62.50
2019-05-02T06:42:50.791Z,60.58
2019-05-02T06:45:20.252Z,60.45
2019-05-02T06:47:49.831Z,60.92
2019-05-02T06:50:19.576Z,61.58
2019-05-02T06:52:48.868Z,62.90
2019-05-02T06:55:18.179Z,53.17
2019-05-02T06:57:47.743Z,59.35
2019-05-02T07:00:17.217Z,57.78
2019-05-02T07:02:46.860Z,65.35
2019-05-02T07:05:16.464Z,61.48
2019-05-02T07:07:45.836Z,61.92
2019-05-02T07:10:20.192Z,64.30
2019-05-02T07:12:50.932Z,65.90
2019-05-02T07:15:38.538Z,64.10
2019-05-02T07:18:16.866Z,64.82
2019-05-02T07:20:46.471Z,67.72
2019-05-02T07:23:18.114Z,63.00
2019-05-02T07:25:46.776Z,60.40
2019-05-02T07:28:16.064Z,58.00
2019-05-02T07:30:45.743Z,62.05
2019-05-02T07:33:15.331Z,64.60
2019-05-02T07:35:44.940Z,62.43
2019-05-02T07:38:14.489Z,60.67
2019-05-02T07:40:48.058Z,62.15
2019-05-02T07:43:21.046Z,59.90
2019-05-02T07:45:46.576Z,61.40
2019-05-02T07:48:17.730Z,60.35
2019-05-02T07:50:48.190Z,59.63
2019-05-02T07:53:17.715Z,61.20
2019-05-02T07:55:49.028Z,60.12
2019-05-02T07:58:18.012Z,60.80
2019-05-02T08:00:47.319Z,56.58
2019-05-02T08:03:16.751Z,61.77
2019-05-02T08:05:46.051Z,56.92
2019-05-02T08:08:15.711Z,60.05
2019-05-02T08:10:45.291Z,57.53
2019-05-02T08:13:17.437Z,58.55
2019-05-02T08:15:50.629Z,58.08
2019-05-02T08:18:17.003Z,57.10
2019-05-02T08:20:46.514Z,58.30
2019-05-02T08:23:20.626Z,59.25
2019-05-02T08:25:47.075Z,57.10
2019-05-02T08:28:20.919Z,59.75
2019-05-02T08:30:52.183Z,59.18
2019-05-02T08:33:22.012Z,58.38
2019-05-02T08:35:51.300Z,57.73
2019-05-02T08:38:20.608Z,59.77
2019-05-02T08:40:49.903Z,58.42
2019-05-02T08:43:19.228Z,53.68
2019-05-02T08:45:48.511Z,60.45
2019-05-02T08:48:18.211Z,55.70
2019-05-02T08:50:47.507Z,56.70
2019-05-02T08:53:19.681Z,55.25
2019-05-02T08:55:48.368Z,54.93
2019-05-02T08:58:17.670Z,54.67
2019-05-02T09:00:47.582Z,52.25
2019-05-02T09:03:16.970Z,54.53
2019-05-02T09:05:47.535Z,56.00
2019-05-02T09:08:16.967Z,54.70
2019-05-02T09:10:46.523Z,54.98
2019-05-02T09:13:23.502Z,55.63
2019-05-02T09:15:51.350Z,53.58
2019-05-02T09:18:17.831Z,50.52
2019-05-02T09:20:52.604Z,53.13
2019-05-02T09:23:18.394Z,53.50
2019-05-02T09:25:47.964Z,51.13
2019-05-02T09:28:21.461Z,50.58
2019-05-02T09:30:48.248Z,52.70
2019-05-02T09:33:17.822Z,53.28
2019-05-02T09:35:47.419Z,53.45
2019-05-02T09:38:16.730Z,49.00
2019-05-02T09:40:47.337Z,50.45
2019-05-02T09:43:17.235Z,48.28
2019-05-02T09:45:46.537Z,50.40
2019-05-02T09:48:17.122Z,47.60
2019-05-02T09:50:47.122Z,43.87
2019-05-02T09:53:20.514Z,47.60
2019-05-02T09:55:50.242Z,43.48
2019-05-02T09:58:21.390Z,47.20
2019-05-02T10:00:55.069Z,44.70
2019-05-02T10:03:24.404Z,43.83
2019-05-02T10:05:53.977Z,45.12
2019-05-02T10:08:23.281Z,42.73
2019-05-02T10:10:52.705Z,42.65
2019-05-02T10:13:22.851Z,42.05
2019-05-02T10:15:52.738Z,39.98
2019-05-02T10:18:25.529Z,43.63
2019-05-02T10:20:53.314Z,37.33
2019-05-02T10:23:23.419Z,38.60
2019-05-02T10:25:53.200Z,34.90
2019-05-02T10:28:22.985Z,37.38
2019-05-02T10:30:56.447Z,40.50
2019-05-02T10:33:23.376Z,38.53
2019-05-02T10:35:52.962Z,38.55
2019-05-02T10:38:22.856Z,36.53
2019-05-02T10:40:54.571Z,37.08
2019-05-02T10:43:23.308Z,38.38
2019-05-02T10:45:56.480Z,39.98
2019-05-02T10:48:28.436Z,36.00
2019-05-02T10:50:58.183Z,37.63
2019-05-02T10:53:27.491Z,36.53
2019-05-02T10:55:56.779Z,38.53
2019-05-02T10:58:31.302Z,37.23
2019-05-02T11:00:57.059Z,37.85
2019-05-02T11:03:27.983Z,37.40
2019-05-02T11:06:05.434Z,39.08
2019-05-02T11:08:32.035Z,37.15
2019-05-02T11:11:02.377Z,38.65
2019-05-02T11:13:53.317Z,41.55
2019-05-02T11:16:29.303Z,39.45
2019-05-02T11:19:13.121Z,41.25
2019-05-02T11:21:53.476Z,38.20
2019-05-02T11:24:14.440Z,37.40
2019-05-02T11:26:43.855Z,35.73
2019-05-02T11:29:13.155Z,35.78
2019-05-02T11:31:42.812Z,34.65
2019-05-02T11:34:12.629Z,38.95
2019-05-02T11:36:42.157Z,34.90
2019-05-02T11:39:20.389Z,36.75
2019-05-02T11:41:42.960Z,36.75
2019-05-02T11:44:12.342Z,37.28
2019-05-02T11:46:46.763Z,35.03
2019-05-02T11:49:13.850Z,35.95
2019-05-02T11:51:47.176Z,35.40
2019-05-02T11:54:14.395Z,37.25
2019-05-02T11:56:48.831Z,34.70
2019-05-02T11:59:15.102Z,35.50
2019-05-02T12:01:56.886Z,31.68
2019-05-02T12:04:17.139Z,32.60
2019-05-02T12:06:50.077Z,32.90
2019-05-02T12:09:18.439Z,31.40
2019-05-02T12:11:52.699Z,28.55
2019-05-02T12:14:18.744Z,30.48
2019-05-02T12:16:48.034Z,30.02
2019-05-02T12:19:17.334Z,27.52
2019-05-02T12:21:54.546Z,27.13
2019-05-02T12:24:23.848Z,28.50
2019-05-02T12:26:53.140Z,29.32
2019-05-02T12:29:22.665Z,28.70
2019-05-02T12:31:56.165Z,28.83
2019-05-02T12:34:22.963Z,28.60
2019-05-02T12:36:52.460Z,25.62
2019-05-02T12:39:22.268Z,21.77
2019-05-02T12:41:53.610Z,22.15
2019-05-02T12:44:22.935Z,24.00
2019-05-02T12:46:52.229Z,18.48
2019-05-02T12:49:25.248Z,15.32
2019-05-02T12:51:52.788Z,15.65
2019-05-02T12:54:22.121Z,14.18
2019-05-02T12:56:52.809Z,15.90
2019-05-02T12:59:22.684Z,15.28
2019-05-02T13:01:52.078Z,18.52
2019-05-02T13:04:22.979Z,18.82
2019-05-02T13:06:53.135Z,18.50
2019-05-02T13:09:23.453Z,16.60
2019-05-02T13:12:02.677Z,16.02
2019-05-02T13:14:32.017Z,16.82
2019-05-02T13:17:05.548Z,16.42
2019-05-02T13:19:40.189Z,15.30
2019-05-02T13:22:12.434Z,16.48
2019-05-02T13:24:47.062Z,17.65
2019-05-02T13:27:16.204Z,17.07
2019-05-02T13:29:45.580Z,18.10
2019-05-02T13:32:19.054Z,18.12
2019-05-02T13:35:02.387Z,16.95
2019-05-02T13:37:32.328Z,17.73
2019-05-02T13:40:03.571Z,16.17
2019-05-02T13:42:33.702Z,16.50
2019-05-02T13:45:05.524Z,17.50
2019-05-02T13:47:34.826Z,16.05
2019-05-02T13:50:05.819Z,18.15
2019-05-02T13:52:35.404Z,17.55
2019-05-02T13:55:08.085Z,17.98
2019-05-02T13:57:43.137Z,19.07
2019-05-02T14:00:09.575Z,17.15
2019-05-02T14:02:42.651Z,16.93
2019-05-02T14:05:14.192Z,17.45
2019-05-02T14:07:48.360Z,17.45
2019-05-02T14:10:32.194Z,16.93
2019-05-02T14:13:03.397Z,18.55
2019-05-02T14:15:34.640Z,15.00
2019-05-02T14:18:03.933Z,15.93
2019-05-02T14:20:33.271Z,15.53
2019-05-02T14:23:02.613Z,16.35
2019-05-02T14:25:32.337Z,15.90
2019-05-02T14:28:02.963Z,16.90
2019-05-02T14:30:39.902Z,15.25
2019-05-02T14:33:05.143Z,16.90
2019-05-02T14:35:36.699Z,16.93
2019-05-02T14:38:13.476Z,18.27
2019-05-02T14:40:57.698Z,19.07
2019-05-02T14:43:47.836Z,18.20
2019-05-02T14:46:17.902Z,16.85
2019-05-02T14:48:48.089Z,18.52
2019-05-02T14:51:25.563Z,16.40
2019-05-02T14:53:48.539Z,18.23
2019-05-02T14:56:25.161Z,17.50
2019-05-02T14:58:54.443Z,16.30
2019-05-02T15:01:26.101Z,17.45
2019-05-02T15:03:58.284Z,15.68
2019-05-02T15:06:26.174Z,15.58
2019-05-02T15:08:55.459Z,16.50
2019-05-02T15:11:30.894Z,15.63
2019-05-02T15:13:55.756Z,16.37
2019-05-02T15:16:39.360Z,15.58
2019-05-02T15:18:57.171Z,13.08
2019-05-02T15:21:28.267Z,16.02
2019-05-02T15:23:58.011Z,17.20
2019-05-02T15:26:31.379Z,17.50
2019-05-02T15:28:58.438Z,19.70
2019-05-02T15:31:33.776Z,16.50
2019-05-02T15:34:05.078Z,19.27
2019-05-02T15:36:37.029Z,19.85
2019-05-02T15:41:39.869Z,19.23
2019-05-02T15:44:09.552Z,17.92
2019-05-02T15:46:40.248Z,19.62
2019-05-02T15:49:09.736Z,19.40
2019-05-02T15:51:43.677Z,21.37
2019-05-02T15:54:12.511Z,20.45
2019-05-02T15:57:00.311Z,17.17
2019-05-02T15:59:37.611Z,20.25
2019-05-02T16:02:07.287Z,20.35
2019-05-02T16:04:38.580Z,18.23
2019-05-02T16:07:08.664Z,19.05
2019-05-02T16:09:38.204Z,21.02
2019-05-02T16:12:07.524Z,18.20
2019-05-02T16:14:36.811Z,19.77
2019-05-02T16:17:06.111Z,20.02
2019-05-02T16:19:37.055Z,18.92
2019-05-02T16:22:08.173Z,18.60
2019-05-02T16:24:37.560Z,21.07
2019-05-02T16:27:07.200Z,19.07
2019-05-02T16:29:36.498Z,18.00
2019-05-02T16:32:19.682Z,18.35
2019-05-02T16:34:54.624Z,19.98
2019-05-02T16:37:24.481Z,21.57
2019-05-02T16:39:53.781Z,22.45
2019-05-02T16:42:23.214Z,22.50
2019-05-02T16:44:54.855Z,18.23
2019-05-02T16:47:23.824Z,15.45
2019-05-02T16:49:56.470Z,13.10
2019-05-02T16:52:24.415Z,13.35
2019-05-02T16:54:53.728Z,13.90
2019-05-02T16:57:23.850Z,13.53
2019-05-02T17:00:00.716Z,11.85
2019-05-02T17:02:24.540Z,11.65
2019-05-02T17:04:54.589Z,11.25
2019-05-02T17:07:25.743Z,11.97
2019-05-02T17:09:59.367Z,9.00
2019-05-02T17:12:28.815Z,11.85
2019-05-02T17:15:16.417Z,9.83
2019-05-02T17:17:46.258Z,9.03
2019-05-02T17:20:16.786Z,9.80
2019-05-02T17:22:50.168Z,7.72
2019-05-02T17:25:17.472Z,9.25
2019-05-02T17:27:46.751Z,7.83
2019-05-02T17:30:17.735Z,8.23
2019-05-02T17:32:47.100Z,6.35
2019-05-02T17:35:16.615Z,6.30
2019-05-02T17:37:48.662Z,7.15
2019-05-02T17:40:22.564Z,6.83
2019-05-02T17:42:49.197Z,6.47
2019-05-02T17:45:19.412Z,6.90
2019-05-02T17:47:49.136Z,7.08
2019-05-02T17:50:26.423Z,6.75
2019-05-02T17:53:01.157Z,7.70
2019-05-02T17:55:32.805Z,7.20
2019-05-02T17:57:59.411Z,7.37
2019-05-02T18:00:30.575Z,7.20
2019-05-02T18:02:59.939Z,7.97
2019-05-02T18:05:32.114Z,6.12
2019-05-02T18:08:00.499Z,6.62
2019-05-02T18:10:29.864Z,6.70
2019-05-02T18:13:00.002Z,6.70
2019-05-02T18:15:34.275Z,8.15
2019-05-02T18:18:06.441Z,8.05
2019-05-02T18:20:32.507Z,8.20
2019-05-02T18:23:02.783Z,9.48
2019-05-02T18:25:33.256Z,8.95
2019-05-02T18:28:02.560Z,8.88
2019-05-02T18:30:32.227Z,8.25
2019-05-02T18:33:03.541Z,11.03
2019-05-02T18:35:37.494Z,10.38
2019-05-02T18:38:04.825Z,11.95
2019-05-02T18:40:34.159Z,17.23
2019-05-02T18:43:05.344Z,25.60
2019-05-02T18:45:34.849Z,11.83
2019-05-02T18:48:06.680Z,12.60
2019-05-02T18:50:46.162Z,10.68
2019-05-02T18:53:18.722Z,9.20
2019-05-02T18:55:45.615Z,10.55
2019-05-02T18:58:14.900Z,11.15
2019-05-02T19:00:44.352Z,11.90
2019-05-02T19:03:17.131Z,11.08
2019-05-02T19:05:46.603Z,11.60
2019-05-02T19:08:28.286Z,13.08
2019-05-02T19:11:02.550Z,13.50
2019-05-02T19:13:18.516Z,12.33
2019-05-02T19:15:49.020Z,15.18
2019-05-02T19:18:19.724Z,13.38
2019-05-02T19:20:57.374Z,14.20
2019-05-02T19:23:26.164Z,13.48
2019-05-02T19:25:55.475Z,12.90
2019-05-02T19:28:38.323Z,13.08
2019-05-02T19:31:07.120Z,13.68
2019-05-02T19:33:37.410Z,13.08
2019-05-02T19:36:07.751Z,13.35
2019-05-02T19:38:37.062Z,13.32
2019-05-02T19:41:09.174Z,12.28
2019-05-02T19:43:40.424Z,11.78
2019-05-02T19:46:08.412Z,11.88
2019-05-02T19:48:40.359Z,11.83
2019-05-02T19:51:11.734Z,12.28
2019-05-02T19:53:42.483Z,11.73
2019-05-02T19:56:12.774Z,10.08
2019-05-02T19:58:46.793Z,8.48
2019-05-02T20:01:17.403Z,8.90
2019-05-02T20:03:47.827Z,8.58
2019-05-02T20:06:17.279Z,10.00
2019-05-02T20:08:46.853Z,8.23
2019-05-02T20:11:16.150Z,7.30
2019-05-02T20:13:45.454Z,7.72
2019-05-02T20:16:19.467Z,7.55
2019-05-02T20:18:48.757Z,8.18
2019-05-02T20:21:24.177Z,7.87
2019-05-02T20:23:50.663Z,6.70
2019-05-02T20:26:21.976Z,6.60
2019-05-02T20:28:52.748Z,7.05
2019-05-02T20:31:22.027Z,5.33
2019-05-02T20:33:52.042Z,5.75
2019-05-02T20:36:22.758Z,5.45
2019-05-02T20:38:52.660Z,4.72
2019-05-02T20:41:22.519Z,4.40
2019-05-02T20:43:51.917Z,5.37
2019-05-02T20:46:21.830Z,5.47
2019-05-02T20:48:52.627Z,4.80
2019-05-02T20:51:22.806Z,5.15
2019-05-02T20:53:52.727Z,4.90
2019-05-02T20:56:23.029Z,4.95
2019-05-02T20:58:52.765Z,4.55
2019-05-02T21:01:22.299Z,3.98
2019-05-02T21:03:52.127Z,4.55
2019-05-02T21:06:37.405Z,4.20
2019-05-02T21:08:58.982Z,4.35
2019-05-02T21:11:29.368Z,4.40
2019-05-02T21:13:58.663Z,4.72
2019-05-02T21:16:27.944Z,4.47
2019-05-02T21:18:57.244Z,5.55
2019-05-02T21:21:26.777Z,4.92
2019-05-02T21:23:56.075Z,4.87
2019-05-02T21:26:25.593Z,4.50
2019-05-02T21:28:54.892Z,5.22
2019-05-02T21:31:24.515Z,5.12
2019-05-02T21:33:53.811Z,5.12
2019-05-02T21:36:23.162Z,5.33
2019-05-02T21:38:52.446Z,5.42
2019-05-02T21:41:22.331Z,5.10
2019-05-02T21:43:51.933Z,4.20
2019-05-02T21:46:22.337Z,5.42
2019-05-02T21:48:52.699Z,4.90
2019-05-02T21:51:26.744Z,4.65
2019-05-02T21:53:58.441Z,5.30
2019-05-02T21:56:29.491Z,5.35
2019-05-02T21:59:05.183Z,4.65
2019-05-02T22:01:38.127Z,4.62
2019-05-02T22:04:07.404Z,5.45
2019-05-02T22:06:36.699Z,5.15
2019-05-02T22:09:08.318Z,4.45
2019-05-02T22:11:38.265Z,5.05
2019-05-02T22:14:07.684Z,4.20
2019-05-02T22:16:36.976Z,4.62
2019-05-02T22:19:06.275Z,4.92
2019-05-02T22:21:35.896Z,4.53
2019-05-02T22:24:11.217Z,4.40
2019-05-02T22:26:36.543Z,4.10
2019-05-02T22:29:05.943Z,4.00
2019-05-02T22:31:35.555Z,3.25
2019-05-02T22:34:05.029Z,4.10
2019-05-02T22:36:34.313Z,3.47
2019-05-02T22:39:23.187Z,4.12
2019-05-02T22:41:52.733Z,4.08
2019-05-02T22:44:22.036Z,6.28
2019-05-02T22:46:52.087Z,5.90
2019-05-02T22:49:22.499Z,5.47
2019-05-02T22:51:51.971Z,7.15
2019-05-02T22:54:29.605Z,6.20
2019-05-02T22:56:52.306Z,6.80
2019-05-02T22:59:23.702Z,7.95
2019-05-02T23:01:52.880Z,7.37
2019-05-02T23:04:23.538Z,7.17
2019-05-02T23:06:53.118Z,6.90
2019-05-02T23:09:22.518Z,6.15
2019-05-02T23:11:53.295Z,7.50
2019-05-02T23:14:22.572Z,6.67
2019-05-02T23:16:52.824Z,6.87
2019-05-02T23:19:23.068Z,7.15
2019-05-02T23:21:52.859Z,6.92
2019-05-02T23:24:36.232Z,6.10
2019-05-02T23:26:59.733Z,6.45
2019-05-02T23:29:29.035Z,8.20
2019-05-02T23:31:58.315Z,7.25
2019-05-02T23:34:27.614Z,8.70
2019-05-02T23:36:56.915Z,8.43
2019-05-02T23:39:26.436Z,9.93
2019-05-02T23:41:55.739Z,9.73
2019-05-02T23:44:25.039Z,10.00
2019-05-02T23:46:54.720Z,11.55
2019-05-02T23:49:24.033Z,9.50
2019-05-02T23:51:53.630Z,10.40
2019-05-02T23:54:23.236Z,10.63
2019-05-02T23:56:52.844Z,10.25
2019-05-02T23:59:22.418Z,11.15
